sensor_id;sensor_type;location;lat;lon;timestamp;P1;durP1;ratioP1;P2;durP2;ratioP2
58643;SDS011;44411;49.994;8.660;2022-10-31T00:01:28;26.75;;;19.10;;
58643;SDS011;44411;49.994;8.660;2022-10-31T00:03:56;30.13;;;18.80;;
58643;SDS011;44411;49.994;8.660;2022-10-31T00:06:21;30.38;;;19.15;;
58643;SDS011;44411;49.994;8.660;2022-10-31T00:08:51;23.02;;;16.75;;
58643;SDS011;44411;49.994;8.660;2022-10-31T00:11:18;25.10;;;17.23;;
58643;SDS011;44411;49.994;8.660;2022-10-31T00:13:43;26.55;;;18.83;;
58643;SDS011;44411;49.994;8.660;2022-10-31T00:16:19;27.75;;;19.02;;
58643;SDS011;44411;49.994;8.660;2022-10-31T00:18:52;23.63;;;18.77;;
58643;SDS011;44411;49.994;8.660;2022-10-31T00:21:20;24.67;;;16.90;;
58643;SDS011;44411;49.994;8.660;2022-10-31T00:23:46;22.40;;;17.20;;
58643;SDS011;44411;49.994;8.660;2022-10-31T00:26:11;25.20;;;18.70;;
58643;SDS011;44411;49.994;8.660;2022-10-31T00:28:37;25.58;;;18.83;;
58643;SDS011;44411;49.994;8.660;2022-10-31T00:31:04;23.58;;;17.10;;
58643;SDS011;44411;49.994;8.660;2022-10-31T00:33:33;22.52;;;16.42;;
58643;SDS011;44411;49.994;8.660;2022-10-31T00:35:59;20.63;;;16.70;;
58643;SDS011;44411;49.994;8.660;2022-10-31T00:38:25;25.73;;;18.10;;
58643;SDS011;44411;49.994;8.660;2022-10-31T00:40:51;27.25;;;16.90;;
58643;SDS011;44411;49.994;8.660;2022-10-31T00:43:16;22.88;;;16.45;;
58643;SDS011;44411;49.994;8.660;2022-10-31T00:45:42;20.95;;;15.65;;
58643;SDS011;44411;49.994;8.660;2022-10-31T00:48:08;24.02;;;15.48;;
58643;SDS011;44411;49.994;8.660;2022-10-31T00:50:34;18.35;;;14.48;;
58643;SDS011;44411;49.994;8.660;2022-10-31T00:53:00;21.13;;;15.75;;
58643;SDS011;44411;49.994;8.660;2022-10-31T00:55:25;23.33;;;16.40;;
58643;SDS011;44411;49.994;8.660;2022-10-31T00:57:50;24.58;;;16.77;;
58643;SDS011;44411;49.994;8.660;2022-10-31T07:03:06;19.42;;;13.23;;
58643;SDS011;44411;49.994;8.660;2022-10-31T07:05:34;30.80;;;14.65;;
58643;SDS011;44411;49.994;8.660;2022-10-31T07:08:00;21.85;;;13.32;;
58643;SDS011;44411;49.994;8.660;2022-10-31T07:10:28;18.90;;;13.40;;
58643;SDS011;44411;49.994;8.660;2022-10-31T07:12:56;22.33;;;14.18;;
58643;SDS011;44411;49.994;8.660;2022-10-31T07:15:22;23.60;;;13.18;;
58643;SDS011;44411;49.994;8.660;2022-10-31T07:17:48;21.55;;;14.23;;
58643;SDS011;44411;49.994;8.660;2022-10-31T07:20:14;25.08;;;14.70;;
58643;SDS011;44411;49.994;8.660;2022-10-31T07:22:40;21.30;;;13.73;;
58643;SDS011;44411;49.994;8.660;2022-10-31T07:25:05;25.02;;;14.38;;
58643;SDS011;44411;49.994;8.660;2022-10-31T07:30:04;20.92;;;14.77;;
58643;SDS011;44411;49.994;8.660;2022-10-31T07:35:13;23.77;;;14.45;;
58643;SDS011;44411;49.994;8.660;2022-10-31T07:37:40;27.70;;;15.52;;
58643;SDS011;44411;49.994;8.660;2022-10-31T07:40:06;24.88;;;15.45;;
58643;SDS011;44411;49.994;8.660;2022-10-31T07:42:42;17.67;;;13.60;;
58643;SDS011;44411;49.994;8.660;2022-10-31T07:45:11;19.83;;;13.23;;
58643;SDS011;44411;49.994;8.660;2022-10-31T07:47:45;18.83;;;12.68;;
58643;SDS011;44411;49.994;8.660;2022-10-31T07:50:13;20.77;;;13.48;;
58643;SDS011;44411;49.994;8.660;2022-10-31T07:52:40;21.48;;;13.93;;
58643;SDS011;44411;49.994;8.660;2022-10-31T07:55:06;18.63;;;13.60;;
58643;SDS011;44411;49.994;8.660;2022-10-31T07:57:32;18.02;;;12.95;;
58643;SDS011;44411;49.994;8.660;2022-10-31T07:59:57;21.05;;;13.23;;
58643;SDS011;44411;49.994;8.660;2022-10-31T08:02:23;15.82;;;12.02;;
58643;SDS011;44411;49.994;8.660;2022-10-31T08:04:51;16.73;;;11.25;;
58643;SDS011;44411;49.994;8.660;2022-10-31T08:07:22;16.25;;;12.23;;
58643;SDS011;44411;49.994;8.660;2022-10-31T08:09:48;19.23;;;12.20;;
58643;SDS011;44411;49.994;8.660;2022-10-31T08:12:13;17.92;;;11.70;;
58643;SDS011;44411;49.994;8.660;2022-10-31T08:14:38;20.90;;;12.73;;
58643;SDS011;44411;49.994;8.660;2022-10-31T08:17:04;14.07;;;11.63;;
58643;SDS011;44411;49.994;8.660;2022-10-31T08:19:29;19.50;;;12.02;;
58643;SDS011;44411;49.994;8.660;2022-10-31T08:21:54;16.35;;;11.60;;
58643;SDS011;44411;49.994;8.660;2022-10-31T08:24:23;21.42;;;11.38;;
58643;SDS011;44411;49.994;8.660;2022-10-31T08:26:48;17.67;;;11.57;;
58643;SDS011;44411;49.994;8.660;2022-10-31T08:29:14;18.73;;;11.30;;
58643;SDS011;44411;49.994;8.660;2022-10-31T08:31:39;22.63;;;10.63;;
58643;SDS011;44411;49.994;8.660;2022-10-31T08:37:02;14.20;;;10.63;;
58643;SDS011;44411;49.994;8.660;2022-10-31T08:39:28;20.73;;;11.35;;
58643;SDS011;44411;49.994;8.660;2022-10-31T08:41:53;15.30;;;10.82;;
58643;SDS011;44411;49.994;8.660;2022-10-31T08:44:18;18.00;;;11.57;;
58643;SDS011;44411;49.994;8.660;2022-10-31T08:46:44;22.15;;;11.68;;
58643;SDS011;44411;49.994;8.660;2022-10-31T08:49:09;16.13;;;10.63;;
58643;SDS011;44411;49.994;8.660;2022-10-31T08:51:34;17.02;;;11.00;;
58643;SDS011;44411;49.994;8.660;2022-10-31T08:54:00;16.45;;;10.70;;
58643;SDS011;44411;49.994;8.660;2022-10-31T08:56:25;15.57;;;9.85;;
58643;SDS011;44411;49.994;8.660;2022-10-31T08:58:52;18.67;;;10.10;;
58643;SDS011;44411;49.994;8.660;2022-10-31T09:01:18;17.02;;;11.45;;
58643;SDS011;44411;49.994;8.660;2022-10-31T09:03:43;17.60;;;9.90;;
58643;SDS011;44411;49.994;8.660;2022-10-31T09:06:08;17.38;;;11.13;;
58643;SDS011;44411;49.994;8.660;2022-10-31T09:08:34;19.27;;;11.18;;
58643;SDS011;44411;49.994;8.660;2022-10-31T09:11:00;15.20;;;11.15;;
58643;SDS011;44411;49.994;8.660;2022-10-31T09:13:26;18.27;;;12.20;;
58643;SDS011;44411;49.994;8.660;2022-10-31T09:15:51;16.98;;;11.65;;
58643;SDS011;44411;49.994;8.660;2022-10-31T09:18:19;16.35;;;12.05;;
58643;SDS011;44411;49.994;8.660;2022-10-31T09:20:46;20.55;;;13.18;;
58643;SDS011;44411;49.994;8.660;2022-10-31T09:23:13;17.67;;;12.55;;
58643;SDS011;44411;49.994;8.660;2022-10-31T09:25:43;17.25;;;12.65;;
58643;SDS011;44411;49.994;8.660;2022-10-31T09:28:10;20.13;;;13.80;;
58643;SDS011;44411;49.994;8.660;2022-10-31T09:30:37;20.35;;;13.35;;
58643;SDS011;44411;49.994;8.660;2022-10-31T09:33:04;19.83;;;15.13;;
58643;SDS011;44411;49.994;8.660;2022-10-31T09:35:31;21.77;;;15.57;;
58643;SDS011;44411;49.994;8.660;2022-10-31T09:37:58;19.60;;;14.85;;
58643;SDS011;44411;49.994;8.660;2022-10-31T09:40:40;20.00;;;14.43;;
58643;SDS011;44411;49.994;8.660;2022-10-31T09:51:22;18.33;;;14.02;;
58643;SDS011;44411;49.994;8.660;2022-10-31T09:56:37;19.50;;;13.98;;
58643;SDS011;44411;49.994;8.660;2022-10-31T09:59:04;21.02;;;14.57;;
58643;SDS011;44411;49.994;8.660;2022-10-31T10:01:40;18.63;;;12.52;;
58643;SDS011;44411;49.994;8.660;2022-10-31T10:06:54;18.60;;;12.80;;
58643;SDS011;44411;49.994;8.660;2022-10-31T10:09:20;16.90;;;12.57;;
58643;SDS011;44411;49.994;8.660;2022-10-31T10:17:27;20.25;;;12.43;;
58643;SDS011;44411;49.994;8.660;2022-10-31T10:22:56;17.90;;;11.88;;
58643;SDS011;44411;49.994;8.660;2022-10-31T10:25:41;17.52;;;10.82;;
58643;SDS011;44411;49.994;8.660;2022-10-31T10:28:20;17.40;;;11.13;;
58643;SDS011;44411;49.994;8.660;2022-10-31T10:33:38;17.40;;;10.68;;
58643;SDS011;44411;49.994;8.660;2022-10-31T10:36:11;15.32;;;10.88;;
58643;SDS011;44411;49.994;8.660;2022-10-31T10:38:53;19.08;;;11.30;;
58643;SDS011;44411;49.994;8.660;2022-10-31T10:41:23;16.52;;;10.65;;
58643;SDS011;44411;49.994;8.660;2022-10-31T10:43:53;20.55;;;10.75;;
58643;SDS011;44411;49.994;8.660;2022-10-31T10:51:47;17.30;;;11.05;;
58643;SDS011;44411;49.994;8.660;2022-10-31T10:59:39;15.30;;;8.57;;
58643;SDS011;44411;49.994;8.660;2022-10-31T11:02:15;17.65;;;8.90;;
58643;SDS011;44411;49.994;8.660;2022-10-31T11:04:47;22.45;;;9.68;;
58643;SDS011;44411;49.994;8.660;2022-10-31T11:07:16;12.35;;;9.95;;
58643;SDS011;44411;49.994;8.660;2022-10-31T11:09:41;19.88;;;9.45;;
58643;SDS011;44411;49.994;8.660;2022-10-31T11:12:10;12.10;;;8.52;;
58643;SDS011;44411;49.994;8.660;2022-10-31T11:14:47;15.85;;;8.77;;
58643;SDS011;44411;49.994;8.660;2022-10-31T11:20:21;15.90;;;8.93;;
58643;SDS011;44411;49.994;8.660;2022-10-31T11:22:59;14.07;;;8.10;;
58643;SDS011;44411;49.994;8.660;2022-10-31T11:25:26;15.50;;;8.00;;
58643;SDS011;44411;49.994;8.660;2022-10-31T11:28:25;16.42;;;8.63;;
58643;SDS011;44411;49.994;8.660;2022-10-31T11:30:51;12.57;;;7.97;;
58643;SDS011;44411;49.994;8.660;2022-10-31T11:35:59;15.85;;;8.20;;
58643;SDS011;44411;49.994;8.660;2022-10-31T11:38:32;13.32;;;7.80;;
58643;SDS011;44411;49.994;8.660;2022-10-31T11:44:20;14.32;;;6.90;;
58643;SDS011;44411;49.994;8.660;2022-10-31T11:46:48;15.50;;;7.47;;
58643;SDS011;44411;49.994;8.660;2022-10-31T11:49:20;12.38;;;6.80;;
58643;SDS011;44411;49.994;8.660;2022-10-31T11:51:50;16.10;;;7.28;;
58643;SDS011;44411;49.994;8.660;2022-10-31T11:57:21;14.93;;;7.28;;
58643;SDS011;44411;49.994;8.660;2022-10-31T11:59:52;15.07;;;7.28;;
58643;SDS011;44411;49.994;8.660;2022-10-31T12:02:19;14.15;;;6.57;;
58643;SDS011;44411;49.994;8.660;2022-10-31T12:04:46;14.82;;;6.72;;
58643;SDS011;44411;49.994;8.660;2022-10-31T12:07:26;11.80;;;6.68;;
58643;SDS011;44411;49.994;8.660;2022-10-31T12:09:51;12.27;;;7.07;;
58643;SDS011;44411;49.994;8.660;2022-10-31T12:17:45;11.60;;;5.88;;
58643;SDS011;44411;49.994;8.660;2022-10-31T12:38:59;13.75;;;6.53;;
58643;SDS011;44411;49.994;8.660;2022-10-31T12:44:04;13.97;;;6.80;;
58643;SDS011;44411;49.994;8.660;2022-10-31T12:49:39;15.25;;;6.78;;
58643;SDS011;44411;49.994;8.660;2022-10-31T12:52:16;14.77;;;6.68;;
58643;SDS011;44411;49.994;8.660;2022-10-31T12:57:42;12.98;;;6.60;;
58643;SDS011;44411;49.994;8.660;2022-10-31T13:00:12;13.63;;;6.63;;
58643;SDS011;44411;49.994;8.660;2022-10-31T13:02:51;14.68;;;7.32;;
58643;SDS011;44411;49.994;8.660;2022-10-31T13:05:44;12.45;;;6.63;;
58643;SDS011;44411;49.994;8.660;2022-10-31T13:08:17;12.23;;;6.55;;
58643;SDS011;44411;49.994;8.660;2022-10-31T13:11:48;12.65;;;6.97;;
58643;SDS011;44411;49.994;8.660;2022-10-31T13:13:56;10.32;;;6.80;;
58643;SDS011;44411;49.994;8.660;2022-10-31T13:16:28;11.35;;;6.57;;
58643;SDS011;44411;49.994;8.660;2022-10-31T13:19:00;10.85;;;6.30;;
58643;SDS011;44411;49.994;8.660;2022-10-31T13:21:34;12.48;;;6.45;;
58643;SDS011;44411;49.994;8.660;2022-10-31T13:24:03;13.13;;;7.30;;
58643;SDS011;44411;49.994;8.660;2022-10-31T13:29:11;12.50;;;7.28;;
58643;SDS011;44411;49.994;8.660;2022-10-31T13:31:43;12.77;;;6.43;;
58643;SDS011;44411;49.994;8.660;2022-10-31T13:34:16;11.65;;;6.47;;
58643;SDS011;44411;49.994;8.660;2022-10-31T13:42:42;13.27;;;7.32;;
58643;SDS011;44411;49.994;8.660;2022-10-31T13:45:18;11.32;;;6.32;;
58643;SDS011;44411;49.994;8.660;2022-10-31T13:48:46;11.00;;;6.13;;
58643;SDS011;44411;49.994;8.660;2022-10-31T13:50:40;10.65;;;6.90;;
58643;SDS011;44411;49.994;8.660;2022-10-31T13:53:18;13.88;;;7.05;;
58643;SDS011;44411;49.994;8.660;2022-10-31T13:55:49;11.45;;;6.50;;
58643;SDS011;44411;49.994;8.660;2022-10-31T13:58:30;13.35;;;6.47;;
58643;SDS011;44411;49.994;8.660;2022-10-31T14:03:44;14.18;;;6.90;;
58643;SDS011;44411;49.994;8.660;2022-10-31T14:06:12;15.13;;;6.70;;
58643;SDS011;44411;49.994;8.660;2022-10-31T14:08:41;11.15;;;6.82;;
58643;SDS011;44411;49.994;8.660;2022-10-31T14:11:22;15.23;;;6.95;;
58643;SDS011;44411;49.994;8.660;2022-10-31T14:13:52;11.57;;;6.82;;
58643;SDS011;44411;49.994;8.660;2022-10-31T14:16:21;15.80;;;6.82;;
58643;SDS011;44411;49.994;8.660;2022-10-31T14:19:04;8.95;;;6.05;;
58643;SDS011;44411;49.994;8.660;2022-10-31T14:21:40;11.88;;;6.55;;
58643;SDS011;44411;49.994;8.660;2022-10-31T14:24:31;13.88;;;6.97;;
58643;SDS011;44411;49.994;8.660;2022-10-31T14:26:59;11.43;;;6.20;;
58643;SDS011;44411;49.994;8.660;2022-10-31T14:29:46;15.00;;;6.97;;
58643;SDS011;44411;49.994;8.660;2022-10-31T14:34:42;12.65;;;6.53;;
58643;SDS011;44411;49.994;8.660;2022-10-31T14:51:40;10.18;;;6.25;;
58643;SDS011;44411;49.994;8.660;2022-10-31T14:54:11;14.38;;;6.68;;
58643;SDS011;44411;49.994;8.660;2022-10-31T14:56:43;10.77;;;6.30;;
58643;SDS011;44411;49.994;8.660;2022-10-31T14:59:15;14.18;;;6.72;;
58643;SDS011;44411;49.994;8.660;2022-10-31T15:01:48;9.63;;;6.25;;
58643;SDS011;44411;49.994;8.660;2022-10-31T15:04:22;12.63;;;6.30;;
58643;SDS011;44411;49.994;8.660;2022-10-31T15:06:50;11.52;;;6.47;;
58643;SDS011;44411;49.994;8.660;2022-10-31T15:11:48;15.68;;;6.70;;
58643;SDS011;44411;49.994;8.660;2022-10-31T15:17:08;13.80;;;7.30;;
58643;SDS011;44411;49.994;8.660;2022-10-31T15:19:36;10.75;;;7.30;;
58643;SDS011;44411;49.994;8.660;2022-10-31T15:22:02;11.90;;;7.03;;
58643;SDS011;44411;49.994;8.660;2022-10-31T15:24:38;15.63;;;7.32;;
58643;SDS011;44411;49.994;8.660;2022-10-31T15:27:04;12.07;;;6.90;;
58643;SDS011;44411;49.994;8.660;2022-10-31T15:29:30;17.10;;;7.75;;
58643;SDS011;44411;49.994;8.660;2022-10-31T15:31:57;14.82;;;7.68;;
58643;SDS011;44411;49.994;8.660;2022-10-31T15:34:33;17.73;;;8.27;;
58643;SDS011;44411;49.994;8.660;2022-10-31T15:37:03;13.55;;;7.72;;
58643;SDS011;44411;49.994;8.660;2022-10-31T15:39:29;12.13;;;7.50;;
58643;SDS011;44411;49.994;8.660;2022-10-31T15:41:55;12.55;;;8.30;;
58643;SDS011;44411;49.994;8.660;2022-10-31T15:44:26;14.55;;;9.23;;
58643;SDS011;44411;49.994;8.660;2022-10-31T15:46:58;14.88;;;8.20;;
58643;SDS011;44411;49.994;8.660;2022-10-31T15:49:32;13.27;;;7.65;;
58643;SDS011;44411;49.994;8.660;2022-10-31T15:54:51;17.17;;;8.70;;
58643;SDS011;44411;49.994;8.660;2022-10-31T15:57:19;12.77;;;8.30;;
58643;SDS011;44411;49.994;8.660;2022-10-31T15:59:45;16.10;;;8.20;;
58643;SDS011;44411;49.994;8.660;2022-10-31T16:02:13;14.85;;;9.27;;
58643;SDS011;44411;49.994;8.660;2022-10-31T16:07:16;14.38;;;9.48;;
58643;SDS011;44411;49.994;8.660;2022-10-31T16:12:14;18.73;;;10.27;;
58643;SDS011;44411;49.994;8.660;2022-10-31T16:14:41;19.15;;;10.73;;
58643;SDS011;44411;49.994;8.660;2022-10-31T16:17:10;17.00;;;10.07;;
58643;SDS011;44411;49.994;8.660;2022-10-31T16:19:42;17.50;;;10.70;;
58643;SDS011;44411;49.994;8.660;2022-10-31T16:22:19;15.68;;;9.82;;
58643;SDS011;44411;49.994;8.660;2022-10-31T16:24:53;16.55;;;9.40;;
58643;SDS011;44411;49.994;8.660;2022-10-31T16:27:25;16.38;;;9.48;;
58643;SDS011;44411;49.994;8.660;2022-10-31T16:29:54;15.18;;;9.95;;
58643;SDS011;44411;49.994;8.660;2022-10-31T16:37:30;16.23;;;9.35;;
58643;SDS011;44411;49.994;8.660;2022-10-31T16:39:55;17.67;;;9.52;;
58643;SDS011;44411;49.994;8.660;2022-10-31T16:42:20;16.70;;;8.82;;
58643;SDS011;44411;49.994;8.660;2022-10-31T16:44:46;13.65;;;8.48;;
58643;SDS011;44411;49.994;8.660;2022-10-31T16:47:13;13.98;;;8.88;;
58643;SDS011;44411;49.994;8.660;2022-10-31T16:49:40;12.77;;;8.05;;
58643;SDS011;44411;49.994;8.660;2022-10-31T16:52:06;13.32;;;8.23;;
58643;SDS011;44411;49.994;8.660;2022-10-31T16:54:32;16.27;;;8.43;;
58643;SDS011;44411;49.994;8.660;2022-10-31T16:56:58;17.60;;;9.07;;
58643;SDS011;44411;49.994;8.660;2022-10-31T16:59:24;18.40;;;9.25;;
58643;SDS011;44411;49.994;8.660;2022-10-31T17:01:51;16.80;;;10.15;;
58643;SDS011;44411;49.994;8.660;2022-10-31T17:04:17;14.32;;;8.80;;
58643;SDS011;44411;49.994;8.660;2022-10-31T17:06:43;15.98;;;9.70;;
58643;SDS011;44411;49.994;8.660;2022-10-31T17:09:08;14.15;;;9.20;;
58643;SDS011;44411;49.994;8.660;2022-10-31T17:11:33;14.20;;;9.05;;
58643;SDS011;44411;49.994;8.660;2022-10-31T17:13:59;14.77;;;9.45;;
58643;SDS011;44411;49.994;8.660;2022-10-31T17:16:26;17.25;;;9.80;;
58643;SDS011;44411;49.994;8.660;2022-10-31T17:18:51;18.85;;;10.07;;
58643;SDS011;44411;49.994;8.660;2022-10-31T17:21:23;17.67;;;9.95;;
58643;SDS011;44411;49.994;8.660;2022-10-31T17:23:50;15.63;;;9.98;;
58643;SDS011;44411;49.994;8.660;2022-10-31T17:26:16;14.45;;;9.77;;
58643;SDS011;44411;49.994;8.660;2022-10-31T17:28:42;13.90;;;10.05;;
58643;SDS011;44411;49.994;8.660;2022-10-31T17:31:10;13.07;;;9.77;;
58643;SDS011;44411;49.994;8.660;2022-10-31T17:33:44;11.40;;;9.68;;
58643;SDS011;44411;49.994;8.660;2022-10-31T17:36:10;18.63;;;10.52;;
58643;SDS011;44411;49.994;8.660;2022-10-31T17:38:36;18.85;;;10.55;;
58643;SDS011;44411;49.994;8.660;2022-10-31T17:41:05;16.50;;;10.00;;
58643;SDS011;44411;49.994;8.660;2022-10-31T17:43:31;14.63;;;10.43;;
58643;SDS011;44411;49.994;8.660;2022-10-31T17:45:59;16.83;;;10.80;;
58643;SDS011;44411;49.994;8.660;2022-10-31T17:48:27;18.38;;;11.75;;
58643;SDS011;44411;49.994;8.660;2022-10-31T17:50:53;18.92;;;12.10;;
58643;SDS011;44411;49.994;8.660;2022-10-31T17:53:19;18.25;;;10.68;;
58643;SDS011;44411;49.994;8.660;2022-10-31T17:55:44;18.35;;;11.75;;
58643;SDS011;44411;49.994;8.660;2022-10-31T17:58:11;17.88;;;11.65;;
58643;SDS011;44411;49.994;8.660;2022-10-31T18:00:38;18.73;;;11.82;;
58643;SDS011;44411;49.994;8.660;2022-10-31T18:03:05;15.52;;;11.45;;
58643;SDS011;44411;49.994;8.660;2022-10-31T18:05:30;16.75;;;11.15;;
58643;SDS011;44411;49.994;8.660;2022-10-31T18:07:56;17.52;;;11.45;;
58643;SDS011;44411;49.994;8.660;2022-10-31T18:10:21;15.98;;;11.45;;
58643;SDS011;44411;49.994;8.660;2022-10-31T18:12:47;17.60;;;12.77;;
58643;SDS011;44411;49.994;8.660;2022-10-31T18:15:13;20.50;;;14.35;;
58643;SDS011;44411;49.994;8.660;2022-10-31T18:17:39;19.98;;;13.75;;
58643;SDS011;44411;49.994;8.660;2022-10-31T18:20:04;16.25;;;12.48;;
58643;SDS011;44411;49.994;8.660;2022-10-31T18:22:30;16.27;;;11.82;;
58643;SDS011;44411;49.994;8.660;2022-10-31T18:24:55;19.25;;;12.50;;
58643;SDS011;44411;49.994;8.660;2022-10-31T18:27:21;18.67;;;11.77;;
58643;SDS011;44411;49.994;8.660;2022-10-31T18:29:46;17.98;;;10.95;;
58643;SDS011;44411;49.994;8.660;2022-10-31T18:32:11;18.23;;;11.35;;
58643;SDS011;44411;49.994;8.660;2022-10-31T18:34:37;16.20;;;11.23;;
58643;SDS011;44411;49.994;8.660;2022-10-31T18:37:02;20.88;;;11.82;;
58643;SDS011;44411;49.994;8.660;2022-10-31T18:39:27;16.38;;;12.50;;
58643;SDS011;44411;49.994;8.660;2022-10-31T18:41:53;21.35;;;12.60;;
58643;SDS011;44411;49.994;8.660;2022-10-31T18:44:19;17.95;;;12.25;;
58643;SDS011;44411;49.994;8.660;2022-10-31T18:46:44;20.42;;;13.90;;
58643;SDS011;44411;49.994;8.660;2022-10-31T18:49:09;15.45;;;12.00;;
58643;SDS011;44411;49.994;8.660;2022-10-31T18:51:35;20.02;;;14.38;;
58643;SDS011;44411;49.994;8.660;2022-10-31T18:54:00;18.13;;;13.15;;
58643;SDS011;44411;49.994;8.660;2022-10-31T18:56:26;22.75;;;14.65;;
58643;SDS011;44411;49.994;8.660;2022-10-31T18:58:53;21.60;;;15.63;;
58643;SDS011;44411;49.994;8.660;2022-10-31T19:01:21;19.50;;;15.10;;
58643;SDS011;44411;49.994;8.660;2022-10-31T19:03:51;22.95;;;16.05;;
58643;SDS011;44411;49.994;8.660;2022-10-31T19:06:17;22.20;;;18.20;;
58643;SDS011;44411;49.994;8.660;2022-10-31T19:08:43;20.10;;;17.15;;
58643;SDS011;44411;49.994;8.660;2022-10-31T19:11:09;25.42;;;18.42;;
58643;SDS011;44411;49.994;8.660;2022-10-31T19:13:37;25.30;;;19.15;;
58643;SDS011;44411;49.994;8.660;2022-10-31T19:16:07;23.20;;;17.75;;
58643;SDS011;44411;49.994;8.660;2022-10-31T19:18:34;24.80;;;18.23;;
58643;SDS011;44411;49.994;8.660;2022-10-31T19:21:04;25.15;;;19.13;;
58643;SDS011;44411;49.994;8.660;2022-10-31T19:23:37;24.95;;;17.60;;
58643;SDS011;44411;49.994;8.660;2022-10-31T19:26:03;24.58;;;18.25;;
58643;SDS011;44411;49.994;8.660;2022-10-31T19:28:29;22.75;;;17.10;;
58643;SDS011;44411;49.994;8.660;2022-10-31T19:30:56;23.38;;;15.82;;
58643;SDS011;44411;49.994;8.660;2022-10-31T19:33:22;21.88;;;18.13;;
58643;SDS011;44411;49.994;8.660;2022-10-31T19:35:50;27.60;;;17.75;;
58643;SDS011;44411;49.994;8.660;2022-10-31T19:38:16;23.10;;;17.67;;
58643;SDS011;44411;49.994;8.660;2022-10-31T19:40:41;24.58;;;16.40;;
58643;SDS011;44411;49.994;8.660;2022-10-31T19:43:07;19.45;;;16.65;;
58643;SDS011;44411;49.994;8.660;2022-10-31T19:45:32;24.13;;;17.02;;
58643;SDS011;44411;49.994;8.660;2022-10-31T19:47:58;21.30;;;15.43;;
58643;SDS011;44411;49.994;8.660;2022-10-31T19:50:24;21.17;;;15.65;;
58643;SDS011;44411;49.994;8.660;2022-10-31T19:52:49;18.92;;;15.77;;
58643;SDS011;44411;49.994;8.660;2022-10-31T19:55:14;23.80;;;15.95;;
58643;SDS011;44411;49.994;8.660;2022-10-31T19:57:40;18.50;;;15.55;;
58643;SDS011;44411;49.994;8.660;2022-10-31T20:00:05;24.08;;;16.35;;
58643;SDS011;44411;49.994;8.660;2022-10-31T20:02:31;23.60;;;15.88;;
58643;SDS011;44411;49.994;8.660;2022-10-31T20:04:56;20.95;;;15.88;;
58643;SDS011;44411;49.994;8.660;2022-10-31T20:07:24;24.98;;;16.98;;
58643;SDS011;44411;49.994;8.660;2022-10-31T20:09:50;19.23;;;14.13;;
58643;SDS011;44411;49.994;8.660;2022-10-31T20:12:16;22.52;;;15.48;;
58643;SDS011;44411;49.994;8.660;2022-10-31T20:14:42;22.33;;;16.40;;
58643;SDS011;44411;49.994;8.660;2022-10-31T20:17:07;24.25;;;18.00;;
58643;SDS011;44411;49.994;8.660;2022-10-31T20:19:33;21.20;;;16.25;;
58643;SDS011;44411;49.994;8.660;2022-10-31T20:21:58;26.10;;;17.25;;
58643;SDS011;44411;49.994;8.660;2022-10-31T20:24:24;24.25;;;16.73;;
58643;SDS011;44411;49.994;8.660;2022-10-31T20:26:49;23.48;;;16.20;;
58643;SDS011;44411;49.994;8.660;2022-10-31T20:29:14;24.90;;;16.00;;
58643;SDS011;44411;49.994;8.660;2022-10-31T20:31:40;22.40;;;17.17;;
58643;SDS011;44411;49.994;8.660;2022-10-31T20:34:06;27.00;;;16.45;;
58643;SDS011;44411;49.994;8.660;2022-10-31T20:36:32;23.90;;;16.45;;
58643;SDS011;44411;49.994;8.660;2022-10-31T20:38:57;21.98;;;17.13;;
58643;SDS011;44411;49.994;8.660;2022-10-31T20:41:24;22.58;;;16.08;;
58643;SDS011;44411;49.994;8.660;2022-10-31T20:43:50;20.50;;;16.15;;
58643;SDS011;44411;49.994;8.660;2022-10-31T20:46:17;21.35;;;16.05;;
58643;SDS011;44411;49.994;8.660;2022-10-31T20:48:44;20.50;;;16.52;;
58643;SDS011;44411;49.994;8.660;2022-10-31T20:51:17;20.38;;;15.48;;
58643;SDS011;44411;49.994;8.660;2022-10-31T20:53:45;28.25;;;15.68;;
58643;SDS011;44411;49.994;8.660;2022-10-31T20:56:15;21.15;;;16.83;;
58643;SDS011;44411;49.994;8.660;2022-10-31T20:58:42;25.98;;;17.35;;
58643;SDS011;44411;49.994;8.660;2022-10-31T21:01:17;24.58;;;18.42;;
58643;SDS011;44411;49.994;8.660;2022-10-31T21:03:50;21.70;;;17.20;;
58643;SDS011;44411;49.994;8.660;2022-10-31T21:06:16;30.42;;;20.50;;
58643;SDS011;44411;49.994;8.660;2022-10-31T21:08:43;24.63;;;20.77;;
58643;SDS011;44411;49.994;8.660;2022-10-31T21:11:13;27.33;;;18.80;;
58643;SDS011;44411;49.994;8.660;2022-10-31T21:13:41;22.80;;;18.30;;
58643;SDS011;44411;49.994;8.660;2022-10-31T21:16:09;24.95;;;18.92;;
58643;SDS011;44411;49.994;8.660;2022-10-31T21:18:45;25.77;;;18.15;;
58643;SDS011;44411;49.994;8.660;2022-10-31T21:21:14;29.85;;;18.27;;
58643;SDS011;44411;49.994;8.660;2022-10-31T21:23:42;28.50;;;18.90;;
58643;SDS011;44411;49.994;8.660;2022-10-31T21:26:12;25.25;;;18.45;;
58643;SDS011;44411;49.994;8.660;2022-10-31T21:28:40;26.98;;;19.30;;
58643;SDS011;44411;49.994;8.660;2022-10-31T21:31:07;29.15;;;20.70;;
58643;SDS011;44411;49.994;8.660;2022-10-31T21:33:35;26.95;;;19.85;;
58643;SDS011;44411;49.994;8.660;2022-10-31T21:36:01;32.17;;;21.42;;
58643;SDS011;44411;49.994;8.660;2022-10-31T21:38:27;31.55;;;20.70;;
58643;SDS011;44411;49.994;8.660;2022-10-31T21:40:59;34.65;;;21.77;;
58643;SDS011;44411;49.994;8.660;2022-10-31T21:43:26;32.80;;;22.48;;
58643;SDS011;44411;49.994;8.660;2022-10-31T21:45:52;31.38;;;21.45;;
58643;SDS011;44411;49.994;8.660;2022-10-31T21:48:17;21.73;;;18.77;;
58643;SDS011;44411;49.994;8.660;2022-10-31T21:50:42;24.15;;;19.02;;
58643;SDS011;44411;49.994;8.660;2022-10-31T21:53:08;30.83;;;22.48;;
58643;SDS011;44411;49.994;8.660;2022-10-31T21:55:52;39.33;;;24.92;;
58643;SDS011;44411;49.994;8.660;2022-10-31T21:58:20;31.85;;;21.88;;
58643;SDS011;44411;49.994;8.660;2022-10-31T22:00:45;29.35;;;19.50;;
58643;SDS011;44411;49.994;8.660;2022-10-31T22:03:11;28.50;;;18.95;;
58643;SDS011;44411;49.994;8.660;2022-10-31T22:05:36;25.83;;;19.15;;
58643;SDS011;44411;49.994;8.660;2022-10-31T22:08:01;25.33;;;19.35;;
58643;SDS011;44411;49.994;8.660;2022-10-31T22:10:27;25.45;;;18.58;;
58643;SDS011;44411;49.994;8.660;2022-10-31T22:12:52;29.35;;;22.40;;
58643;SDS011;44411;49.994;8.660;2022-10-31T22:15:18;31.20;;;22.10;;
58643;SDS011;44411;49.994;8.660;2022-10-31T22:17:47;25.45;;;19.67;;
58643;SDS011;44411;49.994;8.660;2022-10-31T22:20:13;31.90;;;21.05;;
58643;SDS011;44411;49.994;8.660;2022-10-31T22:22:38;35.00;;;21.63;;
58643;SDS011;44411;49.994;8.660;2022-10-31T22:25:04;34.13;;;22.77;;
58643;SDS011;44411;49.994;8.660;2022-10-31T22:27:29;29.15;;;22.55;;
58643;SDS011;44411;49.994;8.660;2022-10-31T22:29:55;29.83;;;23.05;;
58643;SDS011;44411;49.994;8.660;2022-10-31T22:32:21;32.17;;;22.67;;
58643;SDS011;44411;49.994;8.660;2022-10-31T22:34:47;33.72;;;21.35;;
58643;SDS011;44411;49.994;8.660;2022-10-31T22:37:13;29.63;;;19.95;;
58643;SDS011;44411;49.994;8.660;2022-10-31T22:39:40;26.65;;;19.42;;
58643;SDS011;44411;49.994;8.660;2022-10-31T22:42:06;22.80;;;18.67;;
58643;SDS011;44411;49.994;8.660;2022-10-31T22:44:31;27.17;;;19.00;;
58643;SDS011;44411;49.994;8.660;2022-10-31T22:46:57;26.48;;;18.88;;
58643;SDS011;44411;49.994;8.660;2022-10-31T22:49:22;24.30;;;18.02;;
58643;SDS011;44411;49.994;8.660;2022-10-31T22:51:48;24.35;;;19.63;;